sensor_id;sensor_type;location;lat;lon;timestamp;temperature;humidity
26164;DHT22;13914;48.178;11.716;2024-01-15T00:01:33;-2.20;17.00
26164;DHT22;13914;48.178;11.716;2024-01-15T00:03:59;-2.10;17.10
26164;DHT22;13914;48.178;11.716;2024-01-15T00:06:25;-2.10;16.90
26164;DHT22;13914;48.178;11.716;2024-01-15T00:08:52;-2.00;17.60
26164;DHT22;13914;48.178;11.716;2024-01-15T00:11:18;-2.00;17.80
26164;DHT22;13914;48.178;11.716;2024-01-15T00:13:43;-1.90;18.10
26164;DHT22;13914;48.178;11.716;2024-01-15T00:16:09;-1.90;18.50
26164;DHT22;13914;48.178;11.716;2024-01-15T00:18:35;-1.90;18.10
26164;DHT22;13914;48.178;11.716;2024-01-15T00:21:01;-1.80;18.10
26164;DHT22;13914;48.178;11.716;2024-01-15T00:23:27;-1.70;18.60
26164;DHT22;13914;48.178;11.716;2024-01-15T00:25:52;-1.70;18.70
26164;DHT22;13914;48.178;11.716;2024-01-15T00:28:18;-1.70;18.40
26164;DHT22;13914;48.178;11.716;2024-01-15T00:30:44;-1.60;18.10
26164;DHT22;13914;48.178;11.716;2024-01-15T00:33:09;-1.60;18.20
26164;DHT22;13914;48.178;11.716;2024-01-15T00:35:37;-1.60;17.80
26164;DHT22;13914;48.178;11.716;2024-01-15T00:38:03;-1.50;18.30
26164;DHT22;13914;48.178;11.716;2024-01-15T00:40:29;-1.50;18.60
26164;DHT22;13914;48.178;11.716;2024-01-15T00:42:54;-1.40;18.70
26164;DHT22;13914;48.178;11.716;2024-01-15T00:45:20;-1.40;18.60
26164;DHT22;13914;48.178;11.716;2024-01-15T00:47:46;-1.30;18.70
26164;DHT22;13914;48.178;11.716;2024-01-15T00:50:11;-1.30;18.20
26164;DHT22;13914;48.178;11.716;2024-01-15T00:52:37;-1.20;18.40
26164;DHT22;13914;48.178;11.716;2024-01-15T00:55:03;-1.20;18.50
26164;DHT22;13914;48.178;11.716;2024-01-15T00:57:29;-1.20;18.40
26164;DHT22;13914;48.178;11.716;2024-01-15T00:59:54;-1.10;18.10
26164;DHT22;13914;48.178;11.716;2024-01-15T01:02:20;-1.10;17.90
26164;DHT22;13914;48.178;11.716;2024-01-15T01:04:46;-1.10;18.00
26164;DHT22;13914;48.178;11.716;2024-01-15T01:07:11;-1.10;17.80
26164;DHT22;13914;48.178;11.716;2024-01-15T01:09:37;-1.00;17.70
26164;DHT22;13914;48.178;11.716;2024-01-15T01:12:03;-1.00;17.40
26164;DHT22;13914;48.178;11.716;2024-01-15T01:14:29;-1.00;17.30
26164;DHT22;13914;48.178;11.716;2024-01-15T01:16:54;-1.00;17.30
26164;DHT22;13914;48.178;11.716;2024-01-15T01:19:20;-1.00;17.10
26164;DHT22;13914;48.178;11.716;2024-01-15T01:21:46;-1.00;17.10
26164;DHT22;13914;48.178;11.716;2024-01-15T01:24:11;-0.90;17.00
26164;DHT22;13914;48.178;11.716;2024-01-15T01:26:37;-0.90;16.90
26164;DHT22;13914;48.178;11.716;2024-01-15T01:29:03;-0.90;16.90
26164;DHT22;13914;48.178;11.716;2024-01-15T01:31:28;-0.90;16.70
26164;DHT22;13914;48.178;11.716;2024-01-15T01:33:54;-0.90;16.60
26164;DHT22;13914;48.178;11.716;2024-01-15T01:36:19;-0.90;16.50
26164;DHT22;13914;48.178;11.716;2024-01-15T01:38:45;-0.90;16.30
26164;DHT22;13914;48.178;11.716;2024-01-15T01:41:11;-0.90;16.20
26164;DHT22;13914;48.178;11.716;2024-01-15T01:43:36;-0.90;15.90
26164;DHT22;13914;48.178;11.716;2024-01-15T01:46:02;-0.80;16.00
26164;DHT22;13914;48.178;11.716;2024-01-15T01:48:28;-0.90;15.70
26164;DHT22;13914;48.178;11.716;2024-01-15T01:50:57;-0.80;15.60
26164;DHT22;13914;48.178;11.716;2024-01-15T01:53:23;-0.80;15.60
26164;DHT22;13914;48.178;11.716;2024-01-15T01:55:50;-0.80;15.70
26164;DHT22;13914;48.178;11.716;2024-01-15T01:58:16;-0.80;15.50
26164;DHT22;13914;48.178;11.716;2024-01-15T02:00:43;-0.80;15.60
26164;DHT22;13914;48.178;11.716;2024-01-15T02:03:09;-0.80;15.50
26164;DHT22;13914;48.178;11.716;2024-01-15T02:05:35;-0.80;15.30
26164;DHT22;13914;48.178;11.716;2024-01-15T02:08:00;-0.70;15.30
26164;DHT22;13914;48.178;11.716;2024-01-15T02:10:26;-0.80;15.20
26164;DHT22;13914;48.178;11.716;2024-01-15T02:12:52;-0.80;15.10
26164;DHT22;13914;48.178;11.716;2024-01-15T02:15:17;-0.70;15.20
26164;DHT22;13914;48.178;11.716;2024-01-15T02:20:24;-0.70;15.00
26164;DHT22;13914;48.178;11.716;2024-01-15T02:22:50;-0.70;14.90
26164;DHT22;13914;48.178;11.716;2024-01-15T02:25:16;-0.70;15.00
26164;DHT22;13914;48.178;11.716;2024-01-15T02:27:42;-0.70;14.80
26164;DHT22;13914;48.178;11.716;2024-01-15T02:30:08;-0.70;14.90
26164;DHT22;13914;48.178;11.716;2024-01-15T02:32:36;-0.70;14.90
26164;DHT22;13914;48.178;11.716;2024-01-15T02:35:02;-0.70;14.80
26164;DHT22;13914;48.178;11.716;2024-01-15T02:37:27;-0.70;15.10
26164;DHT22;13914;48.178;11.716;2024-01-15T02:39:53;-0.70;14.60
26164;DHT22;13914;48.178;11.716;2024-01-15T02:42:19;-0.70;14.60
26164;DHT22;13914;48.178;11.716;2024-01-15T02:44:44;-0.70;14.50
26164;DHT22;13914;48.178;11.716;2024-01-15T02:47:10;-0.70;14.50
26164;DHT22;13914;48.178;11.716;2024-01-15T02:49:35;-0.70;14.40
26164;DHT22;13914;48.178;11.716;2024-01-15T02:52:01;-0.80;14.40
26164;DHT22;13914;48.178;11.716;2024-01-15T02:54:27;-0.70;14.60
26164;DHT22;13914;48.178;11.716;2024-01-15T02:56:53;-0.70;14.60
26164;DHT22;13914;48.178;11.716;2024-01-15T02:59:19;-0.80;14.50
26164;DHT22;13914;48.178;11.716;2024-01-15T03:01:44;-0.70;14.60
26164;DHT22;13914;48.178;11.716;2024-01-15T03:04:10;-0.80;14.50
26164;DHT22;13914;48.178;11.716;2024-01-15T03:06:36;-0.80;14.50
26164;DHT22;13914;48.178;11.716;2024-01-15T03:09:01;-0.80;14.60
26164;DHT22;13914;48.178;11.716;2024-01-15T03:11:28;-0.80;14.60
26164;DHT22;13914;48.178;11.716;2024-01-15T03:13:54;-0.80;14.60
26164;DHT22;13914;48.178;11.716;2024-01-15T03:16:20;-0.80;14.70
26164;DHT22;13914;48.178;11.716;2024-01-15T03:18:46;-0.80;14.70
26164;DHT22;13914;48.178;11.716;2024-01-15T03:21:11;-0.80;14.70
26164;DHT22;13914;48.178;11.716;2024-01-15T03:23:37;-0.80;14.70
26164;DHT22;13914;48.178;11.716;2024-01-15T03:26:03;-0.80;14.70
26164;DHT22;13914;48.178;11.716;2024-01-15T03:28:29;-0.80;14.70
26164;DHT22;13914;48.178;11.716;2024-01-15T03:30:55;-0.80;14.70
26164;DHT22;13914;48.178;11.716;2024-01-15T03:33:21;-0.80;14.80
26164;DHT22;13914;48.178;11.716;2024-01-15T03:35:47;-0.80;14.80
26164;DHT22;13914;48.178;11.716;2024-01-15T03:38:12;-0.80;14.80
26164;DHT22;13914;48.178;11.716;2024-01-15T03:40:38;-0.80;14.90
26164;DHT22;13914;48.178;11.716;2024-01-15T03:43:03;-0.80;14.90
26164;DHT22;13914;48.178;11.716;2024-01-15T03:45:29;-0.80;14.90
26164;DHT22;13914;48.178;11.716;2024-01-15T03:47:55;-0.80;14.90
26164;DHT22;13914;48.178;11.716;2024-01-15T03:50:20;-0.80;15.00
26164;DHT22;13914;48.178;11.716;2024-01-15T03:52:46;-0.80;14.90
26164;DHT22;13914;48.178;11.716;2024-01-15T03:55:12;-0.80;14.90
26164;DHT22;13914;48.178;11.716;2024-01-15T03:57:37;-0.80;14.90
26164;DHT22;13914;48.178;11.716;2024-01-15T04:00:03;-0.80;14.90
26164;DHT22;13914;48.178;11.716;2024-01-15T04:02:29;-0.80;14.90
26164;DHT22;13914;48.178;11.716;2024-01-15T04:04:55;-0.80;14.90
26164;DHT22;13914;48.178;11.716;2024-01-15T04:07:20;-0.80;14.90
26164;DHT22;13914;48.178;11.716;2024-01-15T04:09:46;-0.80;14.90
26164;DHT22;13914;48.178;11.716;2024-01-15T04:12:12;-0.80;14.90
26164;DHT22;13914;48.178;11.716;2024-01-15T04:14:37;-0.80;15.00
26164;DHT22;13914;48.178;11.716;2024-01-15T04:17:03;-0.80;15.00
26164;DHT22;13914;48.178;11.716;2024-01-15T04:19:29;-0.80;14.90
26164;DHT22;13914;48.178;11.716;2024-01-15T04:21:54;-0.80;14.90
26164;DHT22;13914;48.178;11.716;2024-01-15T04:24:20;-0.80;14.90
26164;DHT22;13914;48.178;11.716;2024-01-15T04:26:46;-0.80;14.90
26164;DHT22;13914;48.178;11.716;2024-01-15T04:29:11;-0.80;14.90
26164;DHT22;13914;48.178;11.716;2024-01-15T04:31:37;-0.80;15.00
26164;DHT22;13914;48.178;11.716;2024-01-15T04:34:03;-0.80;15.00
26164;DHT22;13914;48.178;11.716;2024-01-15T04:36:28;-0.70;15.00
26164;DHT22;13914;48.178;11.716;2024-01-15T04:38:54;-0.80;14.90
26164;DHT22;13914;48.178;11.716;2024-01-15T04:41:20;-0.70;15.00
26164;DHT22;13914;48.178;11.716;2024-01-15T04:43:46;-0.80;15.00
26164;DHT22;13914;48.178;11.716;2024-01-15T04:46:11;-0.80;15.00
26164;DHT22;13914;48.178;11.716;2024-01-15T04:48:37;-0.80;15.00
26164;DHT22;13914;48.178;11.716;2024-01-15T04:51:05;-0.80;15.00
26164;DHT22;13914;48.178;11.716;2024-01-15T04:53:34;-0.70;15.00
26164;DHT22;13914;48.178;11.716;2024-01-15T04:56:00;-0.70;15.10
26164;DHT22;13914;48.178;11.716;2024-01-15T04:58:25;-0.70;15.00
26164;DHT22;13914;48.178;11.716;2024-01-15T05:00:52;-0.70;15.10
26164;DHT22;13914;48.178;11.716;2024-01-15T05:03:18;-0.70;15.10
26164;DHT22;13914;48.178;11.716;2024-01-15T05:05:44;-0.70;15.10
26164;DHT22;13914;48.178;11.716;2024-01-15T05:08:09;-0.70;15.00
26164;DHT22;13914;48.178;11.716;2024-01-15T05:10:35;-0.70;15.00
26164;DHT22;13914;48.178;11.716;2024-01-15T05:13:01;-0.70;15.00
26164;DHT22;13914;48.178;11.716;2024-01-15T05:15:26;-0.70;15.00
26164;DHT22;13914;48.178;11.716;2024-01-15T05:17:52;-0.70;15.00
26164;DHT22;13914;48.178;11.716;2024-01-15T05:20:18;-0.70;15.00
26164;DHT22;13914;48.178;11.716;2024-01-15T05:22:43;-0.70;15.00
26164;DHT22;13914;48.178;11.716;2024-01-15T05:25:09;-0.70;15.10
26164;DHT22;13914;48.178;11.716;2024-01-15T05:27:39;-0.70;15.00
26164;DHT22;13914;48.178;11.716;2024-01-15T05:30:05;-0.70;15.00
26164;DHT22;13914;48.178;11.716;2024-01-15T05:32:31;-0.80;15.00
26164;DHT22;13914;48.178;11.716;2024-01-15T05:34:57;-0.70;15.00
26164;DHT22;13914;48.178;11.716;2024-01-15T05:37:23;-0.70;15.10
26164;DHT22;13914;48.178;11.716;2024-01-15T05:39:48;-0.70;15.00
26164;DHT22;13914;48.178;11.716;2024-01-15T05:42:14;-0.70;15.00
26164;DHT22;13914;48.178;11.716;2024-01-15T05:44:40;-0.70;15.10
26164;DHT22;13914;48.178;11.716;2024-01-15T05:47:05;-0.70;15.00
26164;DHT22;13914;48.178;11.716;2024-01-15T05:49:31;-0.70;15.10
26164;DHT22;13914;48.178;11.716;2024-01-15T05:51:57;-0.70;15.00
26164;DHT22;13914;48.178;11.716;2024-01-15T05:54:22;-0.70;15.10
26164;DHT22;13914;48.178;11.716;2024-01-15T05:56:48;-0.70;15.10
26164;DHT22;13914;48.178;11.716;2024-01-15T05:59:13;-0.70;15.10
26164;DHT22;13914;48.178;11.716;2024-01-15T06:01:39;-0.70;15.10
26164;DHT22;13914;48.178;11.716;2024-01-15T06:04:05;-0.70;15.10
26164;DHT22;13914;48.178;11.716;2024-01-15T06:06:32;-0.70;15.10
26164;DHT22;13914;48.178;11.716;2024-01-15T06:08:57;-0.70;15.10
26164;DHT22;13914;48.178;11.716;2024-01-15T06:11:29;-0.70;15.10
26164;DHT22;13914;48.178;11.716;2024-01-15T06:13:55;-0.70;15.00
26164;DHT22;13914;48.178;11.716;2024-01-15T06:16:21;-0.70;15.10
26164;DHT22;13914;48.178;11.716;2024-01-15T06:18:47;-0.70;15.10
26164;DHT22;13914;48.178;11.716;2024-01-15T06:21:12;-0.70;15.00
26164;DHT22;13914;48.178;11.716;2024-01-15T06:23:40;-0.70;15.10
26164;DHT22;13914;48.178;11.716;2024-01-15T06:26:05;-0.70;15.10
26164;DHT22;13914;48.178;11.716;2024-01-15T06:28:31;-0.70;15.10
26164;DHT22;13914;48.178;11.716;2024-01-15T06:30:57;-0.70;15.10
26164;DHT22;13914;48.178;11.716;2024-01-15T06:33:23;-0.70;15.10
26164;DHT22;13914;48.178;11.716;2024-01-15T06:35:49;-0.70;15.10
26164;DHT22;13914;48.178;11.716;2024-01-15T06:38:15;-0.70;15.10
26164;DHT22;13914;48.178;11.716;2024-01-15T06:40:41;-0.70;15.00
26164;DHT22;13914;48.178;11.716;2024-01-15T06:43:11;-0.60;15.00
26164;DHT22;13914;48.178;11.716;2024-01-15T06:45:37;-0.60;15.00
26164;DHT22;13914;48.178;11.716;2024-01-15T06:48:03;-0.60;15.00
26164;DHT22;13914;48.178;11.716;2024-01-15T06:50:28;-0.70;15.00
26164;DHT22;13914;48.178;11.716;2024-01-15T06:52:54;-0.60;14.90
26164;DHT22;13914;48.178;11.716;2024-01-15T06:55:20;-0.70;15.00
26164;DHT22;13914;48.178;11.716;2024-01-15T06:57:45;-0.60;14.90
26164;DHT22;13914;48.178;11.716;2024-01-15T07:00:11;-0.60;14.80
26164;DHT22;13914;48.178;11.716;2024-01-15T07:02:37;-0.60;14.80
26164;DHT22;13914;48.178;11.716;2024-01-15T07:05:03;-0.60;14.80
26164;DHT22;13914;48.178;11.716;2024-01-15T07:07:30;-0.60;14.90
26164;DHT22;13914;48.178;11.716;2024-01-15T07:09:56;-0.60;14.90
26164;DHT22;13914;48.178;11.716;2024-01-15T07:12:22;-0.60;14.80
26164;DHT22;13914;48.178;11.716;2024-01-15T07:14:48;-0.60;14.90
26164;DHT22;13914;48.178;11.716;2024-01-15T07:17:14;-0.60;14.80
26164;DHT22;13914;48.178;11.716;2024-01-15T07:19:40;-0.60;14.80
26164;DHT22;13914;48.178;11.716;2024-01-15T07:22:06;-0.60;14.70
26164;DHT22;13914;48.178;11.716;2024-01-15T07:24:32;-0.50;14.80
26164;DHT22;13914;48.178;11.716;2024-01-15T07:26:59;-0.60;14.70
26164;DHT22;13914;48.178;11.716;2024-01-15T07:29:25;-0.50;14.90
26164;DHT22;13914;48.178;11.716;2024-01-15T07:31:51;-0.50;14.90
26164;DHT22;13914;48.178;11.716;2024-01-15T07:34:17;-0.50;14.80
26164;DHT22;13914;48.178;11.716;2024-01-15T07:36:46;-0.50;14.90
26164;DHT22;13914;48.178;11.716;2024-01-15T07:39:12;-0.50;14.90
26164;DHT22;13914;48.178;11.716;2024-01-15T07:41:37;-0.50;14.90
26164;DHT22;13914;48.178;11.716;2024-01-15T07:44:03;-0.50;15.00
26164;DHT22;13914;48.178;11.716;2024-01-15T07:46:29;-0.50;14.90
26164;DHT22;13914;48.178;11.716;2024-01-15T07:48:54;-0.50;14.90
26164;DHT22;13914;48.178;11.716;2024-01-15T07:51:25;-0.40;14.90
26164;DHT22;13914;48.178;11.716;2024-01-15T07:53:53;-0.50;14.90
26164;DHT22;13914;48.178;11.716;2024-01-15T07:56:19;-0.40;14.90
26164;DHT22;13914;48.178;11.716;2024-01-15T07:58:44;-0.40;14.90
26164;DHT22;13914;48.178;11.716;2024-01-15T08:01:10;-0.40;14.90
26164;DHT22;13914;48.178;11.716;2024-01-15T08:03:36;-0.40;14.90
26164;DHT22;13914;48.178;11.716;2024-01-15T08:06:02;-0.40;15.00
26164;DHT22;13914;48.178;11.716;2024-01-15T08:08:27;-0.40;15.10
26164;DHT22;13914;48.178;11.716;2024-01-15T08:10:53;-0.40;15.10
26164;DHT22;13914;48.178;11.716;2024-01-15T08:13:19;-0.40;15.10
26164;DHT22;13914;48.178;11.716;2024-01-15T08:15:45;-0.40;15.10
26164;DHT22;13914;48.178;11.716;2024-01-15T08:18:11;-0.30;15.10
26164;DHT22;13914;48.178;11.716;2024-01-15T08:20:37;-0.30;15.10
26164;DHT22;13914;48.178;11.716;2024-01-15T08:23:03;-0.30;15.20
26164;DHT22;13914;48.178;11.716;2024-01-15T08:25:29;-0.30;15.10
26164;DHT22;13914;48.178;11.716;2024-01-15T08:27:56;-0.30;15.10
26164;DHT22;13914;48.178;11.716;2024-01-15T08:30:23;-0.30;15.20
26164;DHT22;13914;48.178;11.716;2024-01-15T08:32:56;-0.30;15.20
26164;DHT22;13914;48.178;11.716;2024-01-15T08:35:21;-0.30;15.20
26164;DHT22;13914;48.178;11.716;2024-01-15T08:37:54;-0.20;15.20
26164;DHT22;13914;48.178;11.716;2024-01-15T08:40:20;-0.20;15.30
26164;DHT22;13914;48.178;11.716;2024-01-15T08:42:46;-0.10;15.40
26164;DHT22;13914;48.178;11.716;2024-01-15T08:45:11;-0.20;15.30
26164;DHT22;13914;48.178;11.716;2024-01-15T08:47:37;-0.20;15.30
26164;DHT22;13914;48.178;11.716;2024-01-15T08:50:03;-0.20;15.30
26164;DHT22;13914;48.178;11.716;2024-01-15T08:52:30;-0.20;15.30
26164;DHT22;13914;48.178;11.716;2024-01-15T08:54:56;-0.10;15.40
26164;DHT22;13914;48.178;11.716;2024-01-15T08:57:24;-0.10;15.40
26164;DHT22;13914;48.178;11.716;2024-01-15T08:59:50;-0.10;15.40
26164;DHT22;13914;48.178;11.716;2024-01-15T09:02:16;-0.10;15.40
26164;DHT22;13914;48.178;11.716;2024-01-15T09:04:42;-0.10;15.90
26164;DHT22;13914;48.178;11.716;2024-01-15T09:07:07;-0.10;15.20
26164;DHT22;13914;48.178;11.716;2024-01-15T09:09:33;0.00;15.20
26164;DHT22;13914;48.178;11.716;2024-01-15T09:12:00;0.00;15.00
26164;DHT22;13914;48.178;11.716;2024-01-15T09:14:25;0.00;15.10
26164;DHT22;13914;48.178;11.716;2024-01-15T09:16:52;0.00;15.10
26164;DHT22;13914;48.178;11.716;2024-01-15T09:19:18;0.00;15.20
26164;DHT22;13914;48.178;11.716;2024-01-15T09:21:44;0.10;15.30
26164;DHT22;13914;48.178;11.716;2024-01-15T09:24:10;0.10;15.20
26164;DHT22;13914;48.178;11.716;2024-01-15T09:26:36;0.10;15.00
26164;DHT22;13914;48.178;11.716;2024-01-15T09:29:02;0.10;15.10
26164;DHT22;13914;48.178;11.716;2024-01-15T09:31:28;0.10;15.00
26164;DHT22;13914;48.178;11.716;2024-01-15T09:33:54;0.10;15.00
26164;DHT22;13914;48.178;11.716;2024-01-15T09:36:24;0.10;15.20
26164;DHT22;13914;48.178;11.716;2024-01-15T09:38:51;0.10;15.10
26164;DHT22;13914;48.178;11.716;2024-01-15T09:41:16;0.20;15.10
26164;DHT22;13914;48.178;11.716;2024-01-15T09:43:42;0.20;15.10
26164;DHT22;13914;48.178;11.716;2024-01-15T09:46:08;0.20;15.10
26164;DHT22;13914;48.178;11.716;2024-01-15T09:48:34;0.20;15.10
26164;DHT22;13914;48.178;11.716;2024-01-15T09:51:03;0.30;15.20
26164;DHT22;13914;48.178;11.716;2024-01-15T09:53:29;0.30;14.90
26164;DHT22;13914;48.178;11.716;2024-01-15T09:55:55;0.30;15.10
26164;DHT22;13914;48.178;11.716;2024-01-15T09:58:21;0.30;15.30
26164;DHT22;13914;48.178;11.716;2024-01-15T10:00:47;0.40;15.30
26164;DHT22;13914;48.178;11.716;2024-01-15T10:03:15;0.40;15.30
26164;DHT22;13914;48.178;11.716;2024-01-15T10:05:41;0.40;15.90
26164;DHT22;13914;48.178;11.716;2024-01-15T10:08:07;0.40;15.10
26164;DHT22;13914;48.178;11.716;2024-01-15T10:10:33;0.40;15.30
26164;DHT22;13914;48.178;11.716;2024-01-15T10:13:01;0.50;15.20
26164;DHT22;13914;48.178;11.716;2024-01-15T10:15:28;0.50;15.20
26164;DHT22;13914;48.178;11.716;2024-01-15T10:17:54;0.50;15.20
26164;DHT22;13914;48.178;11.716;2024-01-15T10:20:20;0.50;15.00
26164;DHT22;13914;48.178;11.716;2024-01-15T10:22:47;0.50;15.10
26164;DHT22;13914;48.178;11.716;2024-01-15T10:25:13;0.50;14.90
26164;DHT22;13914;48.178;11.716;2024-01-15T10:27:40;0.60;15.00
26164;DHT22;13914;48.178;11.716;2024-01-15T10:30:07;0.60;15.20
26164;DHT22;13914;48.178;11.716;2024-01-15T10:32:33;0.60;15.00
26164;DHT22;13914;48.178;11.716;2024-01-15T10:34:59;0.60;14.70
26164;DHT22;13914;48.178;11.716;2024-01-15T10:37:25;0.70;14.70
26164;DHT22;13914;48.178;11.716;2024-01-15T10:39:52;0.70;15.00
26164;DHT22;13914;48.178;11.716;2024-01-15T10:42:18;0.70;15.10
26164;DHT22;13914;48.178;11.716;2024-01-15T10:44:44;0.80;15.00
26164;DHT22;13914;48.178;11.716;2024-01-15T10:47:12;0.80;15.10
26164;DHT22;13914;48.178;11.716;2024-01-15T10:49:37;0.80;15.10
26164;DHT22;13914;48.178;11.716;2024-01-15T10:52:03;0.80;15.10
26164;DHT22;13914;48.178;11.716;2024-01-15T10:54:29;0.90;15.00
26164;DHT22;13914;48.178;11.716;2024-01-15T10:56:55;0.90;15.10
26164;DHT22;13914;48.178;11.716;2024-01-15T10:59:21;0.90;14.80
26164;DHT22;13914;48.178;11.716;2024-01-15T11:01:51;0.90;14.80
26164;DHT22;13914;48.178;11.716;2024-01-15T11:04:22;1.00;14.90
26164;DHT22;13914;48.178;11.716;2024-01-15T11:06:52;1.00;15.00
26164;DHT22;13914;48.178;11.716;2024-01-15T11:09:19;1.00;14.80
26164;DHT22;13914;48.178;11.716;2024-01-15T11:11:45;1.00;14.60
26164;DHT22;13914;48.178;11.716;2024-01-15T11:17:09;1.10;14.10
26164;DHT22;13914;48.178;11.716;2024-01-15T11:19:38;1.10;14.50
26164;DHT22;13914;48.178;11.716;2024-01-15T11:22:56;1.20;14.60
26164;DHT22;13914;48.178;11.716;2024-01-15T11:25:03;1.20;14.60
26164;DHT22;13914;48.178;11.716;2024-01-15T11:27:44;1.20;14.70
26164;DHT22;13914;48.178;11.716;2024-01-15T11:30:13;1.20;14.70
26164;DHT22;13914;48.178;11.716;2024-01-15T11:32:39;1.30;14.70
26164;DHT22;13914;48.178;11.716;2024-01-15T11:35:08;1.30;14.70
26164;DHT22;13914;48.178;11.716;2024-01-15T11:40:36;1.30;14.70
26164;DHT22;13914;48.178;11.716;2024-01-15T11:43:03;1.40;14.80
26164;DHT22;13914;48.178;11.716;2024-01-15T11:45:30;1.40;14.60
26164;DHT22;13914;48.178;11.716;2024-01-15T11:48:15;1.40;14.50
26164;DHT22;13914;48.178;11.716;2024-01-15T11:50:41;1.40;14.20
26164;DHT22;13914;48.178;11.716;2024-01-15T11:53:54;1.40;14.20
26164;DHT22;13914;48.178;11.716;2024-01-15T11:55:59;1.40;14.00
26164;DHT22;13914;48.178;11.716;2024-01-15T11:58:27;1.50;14.20
26164;DHT22;13914;48.178;11.716;2024-01-15T12:00:53;1.50;14.30
26164;DHT22;13914;48.178;11.716;2024-01-15T12:03:20;1.50;13.90
26164;DHT22;13914;48.178;11.716;2024-01-15T12:05:47;1.50;14.00
26164;DHT22;13914;48.178;11.716;2024-01-15T12:08:12;1.60;14.20
26164;DHT22;13914;48.178;11.716;2024-01-15T12:10:38;1.60;14.10
26164;DHT22;13914;48.178;11.716;2024-01-15T12:13:15;1.60;14.40
26164;DHT22;13914;48.178;11.716;2024-01-15T12:15:43;1.60;14.40
26164;DHT22;13914;48.178;11.716;2024-01-15T12:18:10;1.70;14.50
26164;DHT22;13914;48.178;11.716;2024-01-15T12:20:37;1.70;14.70
26164;DHT22;13914;48.178;11.716;2024-01-15T12:23:03;1.70;14.80
26164;DHT22;13914;48.178;11.716;2024-01-15T12:25:29;1.80;14.70
26164;DHT22;13914;48.178;11.716;2024-01-15T12:27:56;1.80;14.80
26164;DHT22;13914;48.178;11.716;2024-01-15T12:30:22;1.90;15.40
26164;DHT22;13914;48.178;11.716;2024-01-15T12:32:48;1.90;15.00
26164;DHT22;13914;48.178;11.716;2024-01-15T12:35:15;1.90;15.10
26164;DHT22;13914;48.178;11.716;2024-01-15T12:37:42;2.00;15.10
26164;DHT22;13914;48.178;11.716;2024-01-15T12:40:09;2.10;15.30
26164;DHT22;13914;48.178;11.716;2024-01-15T12:42:36;2.10;15.20
26164;DHT22;13914;48.178;11.716;2024-01-15T12:45:03;2.20;15.20
26164;DHT22;13914;48.178;11.716;2024-01-15T12:47:30;2.20;15.30
26164;DHT22;13914;48.178;11.716;2024-01-15T12:49:57;2.30;15.30
26164;DHT22;13914;48.178;11.716;2024-01-15T12:52:23;2.30;15.40
26164;DHT22;13914;48.178;11.716;2024-01-15T12:54:49;2.40;15.10
26164;DHT22;13914;48.178;11.716;2024-01-15T12:57:15;2.40;15.00
26164;DHT22;13914;48.178;11.716;2024-01-15T12:59:42;2.50;15.30
26164;DHT22;13914;48.178;11.716;2024-01-15T13:02:10;2.50;15.40
26164;DHT22;13914;48.178;11.716;2024-01-15T13:04:36;2.60;15.40
26164;DHT22;13914;48.178;11.716;2024-01-15T13:07:02;2.60;15.10
26164;DHT22;13914;48.178;11.716;2024-01-15T13:09:28;2.70;15.20
26164;DHT22;13914;48.178;11.716;2024-01-15T13:11:55;2.70;14.90
26164;DHT22;13914;48.178;11.716;2024-01-15T13:14:20;2.80;14.70
26164;DHT22;13914;48.178;11.716;2024-01-15T13:16:46;2.80;14.80
26164;DHT22;13914;48.178;11.716;2024-01-15T13:19:12;2.80;14.50
26164;DHT22;13914;48.178;11.716;2024-01-15T13:21:41;2.80;14.40
26164;DHT22;13914;48.178;11.716;2024-01-15T13:24:07;2.90;14.40
26164;DHT22;13914;48.178;11.716;2024-01-15T13:26:33;2.90;14.40
26164;DHT22;13914;48.178;11.716;2024-01-15T13:28:59;2.90;14.20
26164;DHT22;13914;48.178;11.716;2024-01-15T13:31:26;3.00;14.10
26164;DHT22;13914;48.178;11.716;2024-01-15T13:33:53;3.00;14.00
26164;DHT22;13914;48.178;11.716;2024-01-15T13:36:18;3.00;14.00
26164;DHT22;13914;48.178;11.716;2024-01-15T13:38:46;3.00;14.00
26164;DHT22;13914;48.178;11.716;2024-01-15T13:41:12;3.00;13.90
26164;DHT22;13914;48.178;11.716;2024-01-15T13:43:38;3.10;13.90
26164;DHT22;13914;48.178;11.716;2024-01-15T13:46:03;3.10;13.70
26164;DHT22;13914;48.178;11.716;2024-01-15T13:48:30;3.10;13.70
26164;DHT22;13914;48.178;11.716;2024-01-15T13:50:57;3.10;13.60
26164;DHT22;13914;48.178;11.716;2024-01-15T13:53:23;3.10;13.60
26164;DHT22;13914;48.178;11.716;2024-01-15T13:55:49;3.10;13.50
26164;DHT22;13914;48.178;11.716;2024-01-15T13:58:14;3.10;13.50
26164;DHT22;13914;48.178;11.716;2024-01-15T14:00:41;3.10;13.50
26164;DHT22;13914;48.178;11.716;2024-01-15T14:03:07;3.10;13.40
26164;DHT22;13914;48.178;11.716;2024-01-15T14:05:32;3.00;13.30
26164;DHT22;13914;48.178;11.716;2024-01-15T14:07:58;3.00;13.20
26164;DHT22;13914;48.178;11.716;2024-01-15T14:10:24;3.00;13.20
26164;DHT22;13914;48.178;11.716;2024-01-15T14:12:49;3.00;13.20
26164;DHT22;13914;48.178;11.716;2024-01-15T14:15:15;3.00;13.20
26164;DHT22;13914;48.178;11.716;2024-01-15T14:17:41;3.00;13.20
26164;DHT22;13914;48.178;11.716;2024-01-15T14:20:06;3.00;13.20
26164;DHT22;13914;48.178;11.716;2024-01-15T14:22:34;3.00;13.30
26164;DHT22;13914;48.178;11.716;2024-01-15T14:25:00;2.90;12.90
26164;DHT22;13914;48.178;11.716;2024-01-15T14:27:26;2.90;13.00
26164;DHT22;13914;48.178;11.716;2024-01-15T14:29:52;2.90;13.10
26164;DHT22;13914;48.178;11.716;2024-01-15T14:32:17;2.90;13.20
26164;DHT22;13914;48.178;11.716;2024-01-15T14:34:43;2.90;13.90
26164;DHT22;13914;48.178;11.716;2024-01-15T14:37:09;2.90;13.30
26164;DHT22;13914;48.178;11.716;2024-01-15T14:39:35;2.90;13.40
26164;DHT22;13914;48.178;11.716;2024-01-15T14:42:00;2.80;13.40
26164;DHT22;13914;48.178;11.716;2024-01-15T14:44:26;2.80;13.50
26164;DHT22;13914;48.178;11.716;2024-01-15T14:46:54;2.80;13.50
26164;DHT22;13914;48.178;11.716;2024-01-15T14:49:20;2.80;13.50
26164;DHT22;13914;48.178;11.716;2024-01-15T14:51:45;2.70;13.40
26164;DHT22;13914;48.178;11.716;2024-01-15T14:54:11;2.70;13.40
26164;DHT22;13914;48.178;11.716;2024-01-15T14:56:37;2.70;14.10
26164;DHT22;13914;48.178;11.716;2024-01-15T14:59:02;2.70;13.50
26164;DHT22;13914;48.178;11.716;2024-01-15T15:01:28;2.60;13.50
26164;DHT22;13914;48.178;11.716;2024-01-15T15:03:54;2.70;13.60
26164;DHT22;13914;48.178;11.716;2024-01-15T15:06:19;2.60;13.50
26164;DHT22;13914;48.178;11.716;2024-01-15T15:08:46;2.60;13.60
26164;DHT22;13914;48.178;11.716;2024-01-15T15:11:12;2.60;13.50
26164;DHT22;13914;48.178;11.716;2024-01-15T15:13:39;2.50;13.50
26164;DHT22;13914;48.178;11.716;2024-01-15T15:16:05;2.50;13.50
26164;DHT22;13914;48.178;11.716;2024-01-15T15:18:31;2.50;13.40
26164;DHT22;13914;48.178;11.716;2024-01-15T15:20:57;2.50;13.40
26164;DHT22;13914;48.178;11.716;2024-01-15T15:23:23;2.50;13.40
26164;DHT22;13914;48.178;11.716;2024-01-15T15:25:49;2.40;13.50